createdAt,value
2023-05-16T00:00:00.421Z,97854.94
2023-05-16T00:01:02.425Z,97867.19
2023-05-16T00:02:05.857Z,97860.31
2023-05-16T00:03:07.799Z,97856.91
2023-05-16T00:04:10.751Z,97860.47
2023-05-16T00:05:14.633Z,97858.81
2023-05-16T00:06:18.017Z,97861.44
2023-05-16T00:07:20.775Z,97861.44
2023-05-16T00:08:22.935Z,97869.25
2023-05-16T00:09:25.706Z,97867.47
2023-05-16T00:10:29.017Z,97861.44
2023-05-16T00:11:31.934Z,97859.78
2023-05-16T00:12:33.964Z,97855.38
2023-05-16T00:13:37.551Z,97857.03
2023-05-16T00:14:39.590Z,97860.59
2023-05-16T00:15:44.243Z,97856.53
2023-05-16T00:16:47.254Z,97858.16
2023-05-16T00:17:50.206Z,97861.75
2023-05-16T00:18:52.626Z,97855.84
2023-05-16T00:19:58.210Z,97861.22
2023-05-16T00:21:00.082Z,97858.75
2023-05-16T00:22:04.247Z,97858.88
2023-05-16T00:23:06.005Z,97858.06
2023-05-16T00:24:09.115Z,97855.47
2023-05-16T00:25:11.114Z,97858.88
2023-05-16T00:26:15.313Z,97858.75
2023-05-16T00:27:17.455Z,97863.97
2023-05-16T00:28:20.175Z,97867.41
2023-05-16T00:29:24.254Z,97863.97
2023-05-16T00:30:27.335Z,97864.94
2023-05-16T00:31:29.331Z,97867.69
2023-05-16T00:32:32.581Z,97867.69
2023-05-16T00:33:35.921Z,97870.44
2023-05-16T00:34:38.678Z,97873.22
2023-05-16T00:35:40.571Z,97867.19
2023-05-16T00:36:43.392Z,97874.16
2023-05-16T00:37:45.249Z,97863.88
2023-05-16T00:38:47.983Z,97877.09
2023-05-16T00:39:49.757Z,97871.06
2023-05-16T00:40:52.484Z,97876.53
2023-05-16T00:41:56.998Z,97874.88
2023-05-16T00:42:59.936Z,97875.88
2023-05-16T00:44:02.192Z,97876.97
2023-05-16T00:45:05.566Z,97874.50
2023-05-16T00:46:07.448Z,97876.31
2023-05-16T00:47:11.458Z,97876.31
2023-05-16T00:48:14.332Z,97872.06
2023-05-16T00:49:17.298Z,97874.78
2023-05-16T00:50:19.391Z,97872.19
2023-05-16T00:51:22.161Z,97880.16
2023-05-16T00:52:24.432Z,97877.72
2023-05-16T00:53:27.926Z,97879.63
2023-05-16T00:54:30.389Z,97883.53
2023-05-16T00:55:33.387Z,97881.34
2023-05-16T00:56:36.878Z,97882.88
2023-05-16T00:57:41.321Z,97884.44
2023-05-16T00:58:44.223Z,97879.94
2023-05-16T00:59:48.426Z,97884.75
2023-05-16T01:00:50.399Z,97889.63
2023-05-16T01:01:55.765Z,97887.44
2023-05-16T01:02:57.665Z,97890.31
2023-05-16T01:04:01.709Z,97882.78
2023-05-16T01:05:05.290Z,97883.06
2023-05-16T01:06:08.327Z,97882.38
2023-05-16T01:07:10.426Z,97885.28
2023-05-16T01:08:13.280Z,97876.09
2023-05-16T01:09:15.288Z,97886.81
2023-05-16T01:10:18.023Z,97889.88
2023-05-16T01:11:27.295Z,97881.66
2023-05-16T01:12:34.052Z,97884.81
2023-05-16T01:13:44.006Z,97886.50
2023-05-16T01:14:52.310Z,97881.97
2023-05-16T01:16:00.360Z,97878.44
2023-05-16T01:17:07.044Z,97875.69
2023-05-16T01:18:14.659Z,97876.28
2023-05-16T01:19:24.326Z,97873.41
2023-05-16T01:20:33.658Z,97881.47
2023-05-16T01:21:44.210Z,97871.88
2023-05-16T01:22:53.540Z,97875.88
2023-05-16T01:24:05.548Z,97869.28
2023-05-16T01:25:22.026Z,97878.47
2023-05-16T01:26:28.054Z,97871.88
2023-05-16T01:27:30.449Z,97874.06
2023-05-16T01:28:34.336Z,97872.03
2023-05-16T01:29:36.131Z,97874.31
2023-05-16T01:30:41.734Z,97863.50
2023-05-16T01:31:43.676Z,97866.25
2023-05-16T01:32:47.004Z,97869.69
2023-05-16T01:33:49.243Z,97869.38
2023-05-16T01:34:52.517Z,97864.75
2023-05-16T01:35:59.731Z,97873.22
2023-05-16T01:37:07.506Z,97863.78
2023-05-16T01:38:13.373Z,97864.75
2023-05-16T01:39:22.228Z,97866.53
2023-05-16T01:40:28.685Z,97873.50
2023-05-16T01:41:40.639Z,97865.84
2023-05-16T01:42:44.382Z,97871.16
2023-05-16T01:43:50.570Z,97872.13
2023-05-16T01:44:57.120Z,97878.44
2023-05-16T01:46:04.723Z,97874.31
2023-05-16T01:47:10.277Z,97877.88
2023-05-16T01:48:19.264Z,97877.19
2023-05-16T01:49:26.648Z,97882.00
2023-05-16T01:50:30.635Z,97874.59
2023-05-16T01:51:33.401Z,97873.19
2023-05-16T01:52:39.906Z,97879.75
2023-05-16T01:53:42.398Z,97881.13
2023-05-16T01:54:46.582Z,97877.97
2023-05-16T01:55:50.003Z,97872.19
2023-05-16T01:56:55.947Z,97876.72
2023-05-16T01:57:59.515Z,97874.13
2023-05-16T01:59:03.357Z,97877.53
2023-05-16T02:00:08.663Z,97877.53
2023-05-16T02:01:16.926Z,97872.34
2023-05-16T02:02:18.755Z,97869.88
2023-05-16T02:03:21.589Z,97865.50
2023-05-16T02:04:24.285Z,97868.34
2023-05-16T02:05:27.375Z,97872.59
2023-05-16T02:06:29.428Z,97869.16
2023-05-16T02:07:32.795Z,97872.59
2023-05-16T02:08:34.598Z,97866.72
2023-05-16T02:09:37.360Z,97878.22
2023-05-16T02:12:11.490Z,97876.50
2023-05-16T02:13:13.236Z,97874.19
2023-05-16T02:14:16.243Z,97870.88
2023-05-16T02:15:18.004Z,97887.56
2023-05-16T02:16:20.845Z,97883.44
2023-05-16T02:17:22.845Z,97880.97
2023-05-16T02:18:26.064Z,97878.53
2023-05-16T02:19:27.869Z,97878.78
2023-05-16T02:20:31.278Z,97879.88
2023-05-16T02:21:33.265Z,97882.72
2023-05-16T02:22:36.144Z,97880.41
2023-05-16T02:23:37.954Z,97880.50
2023-05-16T02:24:40.670Z,97881.22
2023-05-16T02:25:42.469Z,97879.56
2023-05-16T02:26:46.102Z,97879.00
2023-05-16T02:27:49.358Z,97885.16
2023-05-16T02:28:52.167Z,97888.81
2023-05-16T02:29:53.961Z,97891.56
2023-05-16T02:30:59.975Z,97882.13
2023-05-16T02:32:01.965Z,97892.50
2023-05-16T02:33:04.909Z,97889.09
2023-05-16T02:34:07.253Z,97883.19
2023-05-16T02:35:10.134Z,97884.00
2023-05-16T02:36:12.080Z,97884.16
2023-05-16T02:37:14.791Z,97884.28
2023-05-16T02:38:17.586Z,97890.53
2023-05-16T02:39:20.345Z,97888.91
2023-05-16T02:40:23.023Z,97885.50
2023-05-16T02:41:25.966Z,97889.72
2023-05-16T02:42:28.038Z,97890.41
2023-05-16T02:43:32.124Z,97890.16
2023-05-16T02:44:33.998Z,97898.38
2023-05-16T02:45:36.775Z,97893.50
2023-05-16T02:46:38.592Z,97902.44
2023-05-16T02:47:41.462Z,97894.13
2023-05-16T02:48:43.240Z,97905.06
2023-05-16T02:49:46.016Z,97898.63
2023-05-16T02:50:47.764Z,97894.97
2023-05-16T02:51:50.604Z,97896.63
2023-05-16T02:52:52.422Z,97899.06
2023-05-16T02:53:56.944Z,97896.75
2023-05-16T02:55:16.012Z,97895.94
2023-05-16T02:56:21.703Z,97896.31
2023-05-16T02:57:23.510Z,97892.47
2023-05-16T02:58:26.271Z,97900.66
2023-05-16T02:59:29.383Z,97899.25
2023-05-16T03:00:32.134Z,97896.91
2023-05-16T03:01:34.392Z,97899.78
2023-05-16T03:02:37.316Z,97899.22
2023-05-16T03:03:40.239Z,97903.00
2023-05-16T03:04:44.370Z,97904.34
2023-05-16T03:05:46.297Z,97901.31
2023-05-16T03:06:49.009Z,97904.19
2023-05-16T03:07:50.865Z,97900.88
2023-05-16T03:08:53.574Z,97895.81
2023-05-16T03:09:55.431Z,97896.91
2023-05-16T03:10:58.974Z,97903.16
2023-05-16T03:12:00.746Z,97901.53
2023-05-16T03:13:03.509Z,97903.53
2023-05-16T03:14:05.663Z,97901.78
2023-05-16T03:15:11.154Z,97905.31
2023-05-16T03:16:12.922Z,97903.69
2023-05-16T03:17:15.718Z,97900.38
2023-05-16T03:18:17.554Z,97906.78
2023-05-16T03:19:20.364Z,97905.25
2023-05-16T03:20:22.676Z,97903.63
2023-05-16T03:21:26.241Z,97896.50
2023-05-16T03:22:28.011Z,97898.88
2023-05-16T03:23:31.717Z,97901.22
2023-05-16T03:24:33.537Z,97898.34
2023-05-16T03:25:36.689Z,97899.88
2023-05-16T03:26:38.586Z,97897.28
2023-05-16T03:27:41.286Z,97904.25
2023-05-16T03:28:43.333Z,97901.53
2023-05-16T03:29:46.136Z,97901.38
2023-05-16T03:30:49.409Z,97902.94
2023-05-16T03:31:52.281Z,97902.66
2023-05-16T03:32:56.586Z,97905.00
2023-05-16T03:35:26.581Z,97901.22
2023-05-16T03:36:29.580Z,97901.22
2023-05-16T03:37:31.842Z,97910.63
2023-05-16T03:38:34.643Z,97906.94
2023-05-16T03:39:36.499Z,97918.72
2023-05-16T03:40:39.323Z,97913.41
2023-05-16T03:41:41.115Z,97919.03
2023-05-16T03:42:43.836Z,97911.13
2023-05-16T03:43:45.554Z,97919.59
2023-05-16T03:44:48.295Z,97925.47
2023-05-16T03:45:51.539Z,97920.19
2023-05-16T03:46:55.899Z,97923.31
2023-05-16T03:47:57.831Z,97914.31
2023-05-16T03:49:00.687Z,97923.50
2023-05-16T03:50:02.986Z,97922.41
2023-05-16T03:51:06.179Z,97918.88
2023-05-16T03:52:07.954Z,97920.25
2023-05-16T03:53:10.775Z,97927.53
2023-05-16T03:54:12.590Z,97922.63
2023-05-16T03:55:15.397Z,97922.69
2023-05-16T03:56:17.255Z,97923.97
2023-05-16T03:57:20.006Z,97921.41
2023-05-16T03:58:21.789Z,97919.66
2023-05-16T03:59:24.601Z,97919.56
2023-05-16T04:00:26.810Z,97922.03
2023-05-16T04:01:31.037Z,97926.25
2023-05-16T04:02:32.937Z,97925.25
2023-05-16T04:03:36.088Z,97928.66
2023-05-16T04:04:38.017Z,97927.78
2023-05-16T04:05:41.322Z,97933.19
2023-05-16T04:06:43.251Z,97926.81
2023-05-16T04:07:46.242Z,97925.53
2023-05-16T04:08:47.966Z,97927.50
2023-05-16T04:09:54.096Z,97925.41
2023-05-16T04:10:55.925Z,97921.44
2023-05-16T04:12:01.770Z,97917.91
2023-05-16T04:13:03.550Z,97922.16
2023-05-16T04:14:06.340Z,97925.03
2023-05-16T04:15:08.996Z,97920.75
2023-05-16T04:16:12.781Z,97920.19
2023-05-16T04:17:16.058Z,97928.91
2023-05-16T04:18:19.152Z,97925.09
2023-05-16T04:19:21.177Z,97927.09
2023-05-16T04:20:23.931Z,97933.25
2023-05-16T04:21:25.814Z,97927.91
2023-05-16T04:22:28.626Z,97930.25
2023-05-16T04:23:30.478Z,97922.59
2023-05-16T04:24:33.222Z,97934.94
2023-05-16T04:25:35.011Z,97941.84
2023-05-16T04:26:38.238Z,97928.78
2023-05-16T04:27:40.088Z,97933.03
2023-05-16T04:28:42.985Z,97930.28
2023-05-16T04:29:44.761Z,97931.72
2023-05-16T04:30:47.648Z,97932.41
2023-05-16T04:31:49.478Z,97938.44
2023-05-16T04:32:53.694Z,97940.69
2023-05-16T04:33:56.026Z,97950.00
2023-05-16T04:34:58.794Z,97949.94
2023-05-16T04:36:02.978Z,97953.63
2023-05-16T04:37:07.613Z,97948.47
2023-05-16T04:38:09.458Z,97950.22
2023-05-16T04:39:12.353Z,97961.16
2023-05-16T04:40:14.958Z,97959.28
2023-05-16T04:41:17.738Z,97956.91
2023-05-16T04:42:19.661Z,97952.53
2023-05-16T04:43:22.420Z,97948.84
2023-05-16T04:44:24.195Z,97962.63
2023-05-16T04:45:29.394Z,97953.75
2023-05-16T04:46:31.773Z,97953.69
2023-05-16T04:47:34.620Z,97954.97
2023-05-16T04:48:37.757Z,97961.03
2023-05-16T04:49:40.559Z,97964.19
2023-05-16T04:50:42.466Z,97961.47
2023-05-16T04:51:45.407Z,97957.91
2023-05-16T04:52:47.174Z,97965.69
2023-05-16T04:53:49.995Z,97971.50
2023-05-16T04:54:52.282Z,97975.53
2023-05-16T04:55:55.529Z,97968.25
2023-05-16T04:56:57.419Z,97974.84
2023-05-16T04:58:00.206Z,97982.78
2023-05-16T04:59:01.986Z,97977.25
2023-05-16T05:00:07.963Z,97975.00
2023-05-16T05:01:09.858Z,97977.81
2023-05-16T05:02:12.692Z,97984.38
2023-05-16T05:03:14.597Z,97976.38
2023-05-16T05:04:18.785Z,97981.63
2023-05-16T05:05:21.149Z,97983.41
2023-05-16T05:06:24.028Z,97983.94
2023-05-16T05:07:28.478Z,97989.50
2023-05-16T05:08:31.190Z,97986.06
2023-05-16T05:09:33.055Z,97988.88
2023-05-16T05:10:35.778Z,97989.19
2023-05-16T05:11:38.133Z,97994.13
2023-05-16T05:12:40.943Z,97991.69
2023-05-16T05:13:42.715Z,97990.19
2023-05-16T05:14:45.482Z,97987.25
2023-05-16T05:15:47.279Z,97988.38
2023-05-16T05:16:50.001Z,97988.81
2023-05-16T05:17:51.937Z,97990.94
2023-05-16T05:18:54.775Z,97990.19
2023-05-16T05:19:57.935Z,97991.81
2023-05-16T05:21:01.024Z,97988.25
2023-05-16T05:22:02.878Z,97980.47
2023-05-16T05:23:05.630Z,97986.06
2023-05-16T05:24:07.583Z,97984.94
2023-05-16T05:25:11.098Z,97989.06
2023-05-16T05:26:12.890Z,97987.94
2023-05-16T05:27:15.874Z,97991.09
2023-05-16T05:28:18.010Z,97983.66
2023-05-16T05:29:20.787Z,97990.38
2023-05-16T05:30:24.829Z,97988.09
2023-05-16T05:31:26.717Z,97989.91
2023-05-16T05:32:29.554Z,97997.78
2023-05-16T05:33:31.433Z,97992.09
2023-05-16T05:34:34.261Z,97985.81
2023-05-16T05:35:37.772Z,97988.59
2023-05-16T05:36:40.743Z,97980.19
2023-05-16T05:37:42.554Z,97991.84
2023-05-16T05:38:45.391Z,97985.31
2023-05-16T05:39:47.151Z,97980.13
2023-05-16T05:40:50.528Z,97987.72
2023-05-16T05:41:52.302Z,97980.50
2023-05-16T05:42:55.060Z,97985.47
2023-05-16T05:43:56.841Z,97984.72
2023-05-16T05:44:59.556Z,97990.56
2023-05-16T05:46:01.493Z,97985.38
2023-05-16T05:47:04.442Z,97987.03
2023-05-16T05:48:06.786Z,97990.13
2023-05-16T05:49:09.711Z,97987.31
2023-05-16T05:50:11.736Z,97994.03
2023-05-16T05:51:15.901Z,97989.00
2023-05-16T05:52:17.673Z,97987.63
2023-05-16T05:53:20.466Z,97991.72
2023-05-16T05:54:22.305Z,97991.53
2023-05-16T05:55:25.136Z,97990.72
2023-05-16T05:56:28.174Z,97989.13
2023-05-16T05:57:29.972Z,97992.38
2023-05-16T05:58:32.710Z,97990.16
2023-05-16T05:59:34.530Z,97994.00
2023-05-16T06:00:37.354Z,97999.72
2023-05-16T06:01:40.308Z,97991.16
2023-05-16T06:02:42.366Z,97994.81
2023-05-16T06:03:45.143Z,97994.81
2023-05-16T06:04:47.049Z,97996.81
2023-05-16T06:05:49.969Z,97991.31
2023-05-16T06:06:54.156Z,97993.72
2023-05-16T06:07:56.042Z,97993.28
2023-05-16T06:08:58.958Z,97993.69
2023-05-16T06:10:05.099Z,97989.81
2023-05-16T06:11:08.195Z,97993.31
2023-05-16T06:12:10.183Z,97997.81
2023-05-16T06:13:12.941Z,97999.06
2023-05-16T06:14:16.142Z,98002.94
2023-05-16T06:15:18.254Z,97997.59
2023-05-16T06:16:21.260Z,97988.81
2023-05-16T06:17:23.203Z,97995.94
2023-05-16T06:18:26.039Z,98001.81
2023-05-16T06:19:27.815Z,98007.72
2023-05-16T06:20:30.599Z,98001.06
2023-05-16T06:21:33.260Z,98000.22
2023-05-16T06:22:37.359Z,98006.50
2023-05-16T06:23:39.136Z,98010.34
2023-05-16T06:24:41.918Z,98002.91
2023-05-16T06:25:43.652Z,97996.31
2023-05-16T06:26:49.957Z,97996.47
2023-05-16T06:27:51.852Z,98001.38
2023-05-16T06:28:54.552Z,97998.78
2023-05-16T06:29:56.730Z,98000.94
2023-05-16T06:30:59.497Z,98003.41
2023-05-16T06:32:01.367Z,97996.09
2023-05-16T06:33:04.358Z,98000.75
2023-05-16T06:34:07.186Z,97996.19
2023-05-16T06:35:09.541Z,97991.28
2023-05-16T06:36:12.311Z,97990.25
2023-05-16T06:37:14.166Z,97989.19
2023-05-16T06:38:19.432Z,97996.47
2023-05-16T06:39:22.385Z,97991.03
2023-05-16T06:40:25.170Z,97985.34
2023-05-16T06:41:27.955Z,97985.38
2023-05-16T06:42:29.721Z,97980.22
2023-05-16T06:43:32.646Z,97979.78
2023-05-16T06:44:34.445Z,97987.84
2023-05-16T06:45:37.242Z,97987.94
2023-05-16T06:46:39.142Z,97997.63
2023-05-16T06:47:42.047Z,97994.44
2023-05-16T06:48:44.941Z,97995.91
2023-05-16T06:49:47.759Z,98007.28
2023-05-16T06:50:49.702Z,98003.59
2023-05-16T06:51:52.503Z,97999.56
2023-05-16T06:52:54.389Z,98003.78
2023-05-16T06:53:58.554Z,98005.09
2023-05-16T06:55:00.404Z,98007.16
2023-05-16T06:56:03.392Z,98003.03
2023-05-16T06:57:05.493Z,98012.34
2023-05-16T06:58:09.187Z,98005.03
2023-05-16T06:59:11.198Z,97997.00
2023-05-16T07:00:15.043Z,97997.22
2023-05-16T07:01:16.981Z,98000.31
2023-05-16T07:02:19.847Z,97996.72
2023-05-16T07:03:22.920Z,98004.25
2023-05-16T07:04:24.815Z,98003.78
2023-05-16T07:05:27.758Z,98005.53
2023-05-16T07:06:29.667Z,98008.97
2023-05-16T07:07:32.440Z,98010.09
2023-05-16T07:08:36.977Z,98005.66
2023-05-16T07:09:40.142Z,98009.88
2023-05-16T07:10:42.897Z,98005.78
2023-05-16T07:11:44.851Z,98010.97
2023-05-16T07:12:48.462Z,98012.22
2023-05-16T07:13:50.284Z,98010.53
2023-05-16T07:14:53.279Z,98018.56
2023-05-16T07:15:55.174Z,98004.47
2023-05-16T07:16:58.082Z,98015.31
2023-05-16T07:18:00.986Z,98014.91
2023-05-16T07:19:03.916Z,98007.72
2023-05-16T07:20:08.216Z,98016.28
2023-05-16T07:21:11.422Z,98010.53
2023-05-16T07:22:13.302Z,98016.94
2023-05-16T07:23:16.074Z,98013.84
2023-05-16T07:24:17.910Z,98012.88
2023-05-16T07:25:22.077Z,98015.38
2023-05-16T07:26:24.024Z,98012.22
2023-05-16T07:27:26.786Z,98014.19
2023-05-16T07:28:28.574Z,98013.38
2023-05-16T07:29:31.661Z,98013.72
2023-05-16T07:30:34.753Z,98012.44
2023-05-16T07:31:37.636Z,98013.81
2023-05-16T07:32:39.716Z,98019.31
2023-05-16T07:33:42.554Z,98029.63
2023-05-16T07:34:44.369Z,98030.94
2023-05-16T07:35:47.445Z,98029.78
2023-05-16T07:36:49.313Z,98033.50
2023-05-16T07:37:52.095Z,98034.16
2023-05-16T07:38:54.893Z,98037.06
2023-05-16T07:39:56.706Z,98031.94
2023-05-16T07:41:01.079Z,98034.88
2023-05-16T07:42:02.897Z,98034.19
2023-05-16T07:43:05.830Z,98038.25
2023-05-16T07:44:07.685Z,98038.09
2023-05-16T07:45:10.939Z,98034.63
2023-05-16T07:46:12.869Z,98037.06
2023-05-16T07:47:15.693Z,98039.50
2023-05-16T07:48:17.499Z,98043.13
2023-05-16T07:49:20.292Z,98044.63
2023-05-16T07:50:23.192Z,98046.81
2023-05-16T07:51:26.100Z,98040.78
2023-05-16T07:52:28.119Z,98045.91
2023-05-16T07:53:30.949Z,98043.59
2023-05-16T07:54:35.800Z,98050.31
2023-05-16T07:55:38.616Z,98059.13
2023-05-16T07:56:41.863Z,98055.75
2023-05-16T07:57:44.819Z,98065.72
2023-05-16T07:58:48.745Z,98074.91
2023-05-16T07:59:53.004Z,98077.09
2023-05-16T08:00:55.917Z,98078.38
2023-05-16T08:01:57.961Z,98078.97
2023-05-16T08:03:00.954Z,98083.34
2023-05-16T08:04:02.983Z,98081.03
2023-05-16T08:05:06.872Z,98083.81
2023-05-16T08:06:09.835Z,98085.09
2023-05-16T08:07:11.820Z,98087.16
2023-05-16T08:08:14.606Z,98096.44
2023-05-16T08:09:17.427Z,98093.22
2023-05-16T08:10:20.193Z,98093.66
2023-05-16T08:11:23.349Z,98090.25
2023-05-16T08:12:27.357Z,98097.47
2023-05-16T08:13:30.115Z,98088.00
2023-05-16T08:14:32.045Z,98088.13
2023-05-16T08:15:35.077Z,98088.78
2023-05-16T08:16:37.141Z,98083.22
2023-05-16T08:17:40.175Z,98089.25
2023-05-16T08:18:42.618Z,98077.41
2023-05-16T08:19:46.416Z,98084.47
2023-05-16T08:20:48.404Z,98090.81
2023-05-16T08:21:51.336Z,98086.44
2023-05-16T08:22:54.377Z,98090.34
2023-05-16T08:23:57.728Z,98088.22
2023-05-16T08:25:00.711Z,98088.44
2023-05-16T08:26:04.126Z,98088.75
2023-05-16T08:27:06.240Z,98087.44
2023-05-16T08:28:10.421Z,98085.78
2023-05-16T08:29:12.314Z,98083.41
2023-05-16T08:30:15.454Z,98082.09
2023-05-16T08:31:18.230Z,98073.25
2023-05-16T08:32:21.046Z,98076.38
2023-05-16T08:33:22.923Z,98073.81
2023-05-16T08:34:25.845Z,98075.19
2023-05-16T08:35:28.159Z,98079.81
2023-05-16T08:36:31.684Z,98079.69
2023-05-16T08:37:35.002Z,98080.09
2023-05-16T08:38:37.817Z,98082.69
2023-05-16T08:39:40.672Z,98081.28
2023-05-16T08:40:44.151Z,98084.38
2023-05-16T08:41:46.304Z,98089.63
2023-05-16T08:42:49.156Z,98085.47
2023-05-16T08:43:53.454Z,98095.44
2023-05-16T08:44:55.450Z,98095.81
2023-05-16T08:45:58.260Z,98089.47
2023-05-16T08:47:18.414Z,98089.97
2023-05-16T08:48:24.738Z,98084.94
2023-05-16T08:49:27.817Z,98082.22
2023-05-16T08:50:32.389Z,98088.41
2023-05-16T08:51:35.619Z,98084.88
2023-05-16T08:52:40.414Z,98085.75
2023-05-16T08:53:47.299Z,98081.19
2023-05-16T08:55:01.990Z,98076.38
2023-05-16T08:56:11.788Z,98081.78
2023-05-16T08:57:14.083Z,98078.69
2023-05-16T08:58:17.597Z,98074.66
2023-05-16T08:59:21.420Z,98081.72
2023-05-16T09:00:25.028Z,98080.00
2023-05-16T09:01:28.044Z,98073.81
2023-05-16T09:02:30.296Z,98080.41
2023-05-16T09:03:33.306Z,98076.84
2023-05-16T09:04:35.921Z,98071.59
2023-05-16T09:05:39.476Z,98072.50
2023-05-16T09:06:41.633Z,98072.25
2023-05-16T09:07:44.936Z,98067.41
2023-05-16T09:08:47.788Z,98058.72
2023-05-16T09:09:49.607Z,98072.94
2023-05-16T09:10:52.386Z,98070.53
2023-05-16T09:11:55.266Z,98075.16
2023-05-16T09:12:58.062Z,98080.84
2023-05-16T09:14:00.867Z,98082.53
2023-05-16T09:15:06.928Z,98083.06
2023-05-16T09:16:10.795Z,98078.50
2023-05-16T09:17:13.587Z,98084.34
2023-05-16T09:18:16.499Z,98076.88
2023-05-16T09:19:19.694Z,98093.81
2023-05-16T09:20:22.495Z,98084.22
2023-05-16T09:21:28.600Z,98086.28
2023-05-16T09:22:31.398Z,98087.97
2023-05-16T09:23:36.952Z,98085.69
2023-05-16T09:24:39.818Z,98081.66
2023-05-16T09:25:43.137Z,98080.63
2023-05-16T09:26:45.009Z,98073.78
2023-05-16T09:27:48.474Z,98076.13
2023-05-16T09:28:54.664Z,98078.16
2023-05-16T09:29:58.040Z,98076.94
2023-05-16T09:31:02.575Z,98087.03
2023-05-16T09:32:12.525Z,98082.75
2023-05-16T09:33:15.411Z,98076.50
2023-05-16T09:34:17.369Z,98076.88
2023-05-16T09:35:35.044Z,98075.94
2023-05-16T09:36:44.425Z,98074.97
2023-05-16T09:37:46.849Z,98074.81
2023-05-16T09:38:51.037Z,98082.75
2023-05-16T09:39:56.002Z,98070.00
2023-05-16T09:40:58.843Z,98076.78
2023-05-16T09:42:00.839Z,98068.50
2023-05-16T09:43:05.684Z,98079.88
2023-05-16T09:44:08.703Z,98075.72
2023-05-16T09:45:13.002Z,98072.69
2023-05-16T09:46:17.581Z,98071.06
2023-05-16T09:47:21.716Z,98070.63
2023-05-16T09:48:28.336Z,98075.25
2023-05-16T09:49:30.813Z,98074.28
2023-05-16T09:50:35.030Z,98074.50
2023-05-16T09:51:38.959Z,98083.53
2023-05-16T09:52:40.817Z,98081.28
2023-05-16T09:53:44.608Z,98079.31
2023-05-16T09:55:00.064Z,98079.41
2023-05-16T09:56:03.389Z,98073.53
2023-05-16T09:57:06.548Z,98085.16
2023-05-16T09:58:08.338Z,98083.06
2023-05-16T09:59:11.933Z,98080.41
2023-05-16T10:00:15.910Z,98084.22
2023-05-16T10:01:19.408Z,98074.31
2023-05-16T10:02:22.788Z,98065.72
2023-05-16T10:03:25.622Z,98079.34
2023-05-16T10:04:28.758Z,98072.38
2023-05-16T10:05:31.676Z,98070.25
2023-05-16T10:06:34.638Z,98066.50
2023-05-16T10:07:38.141Z,98070.25
2023-05-16T10:08:43.696Z,98066.03
2023-05-16T10:09:47.161Z,98066.41
2023-05-16T10:10:51.557Z,98062.44
2023-05-16T10:11:54.445Z,98056.81
2023-05-16T10:12:58.459Z,98057.19
2023-05-16T10:14:01.479Z,98055.63
2023-05-16T10:15:05.764Z,98065.03
2023-05-16T10:16:12.096Z,98059.41
2023-05-16T10:17:17.074Z,98060.50
2023-05-16T10:18:19.601Z,98062.38
2023-05-16T10:19:23.058Z,98063.75
2023-05-16T10:20:26.898Z,98058.88
2023-05-16T10:21:30.727Z,98058.88
2023-05-16T10:22:34.877Z,98064.53
2023-05-16T10:23:40.586Z,98066.41
2023-05-16T10:24:45.832Z,98065.63
2023-05-16T10:25:48.688Z,98068.53
2023-05-16T10:26:53.628Z,98059.66
2023-05-16T10:27:55.518Z,98058.31
2023-05-16T10:28:58.359Z,98062.78
2023-05-16T10:30:00.911Z,98062.16
2023-05-16T10:31:04.001Z,98058.59
2023-05-16T10:32:07.162Z,98064.72
2023-05-16T10:33:11.626Z,98057.13
2023-05-16T10:34:15.056Z,98051.09
2023-05-16T10:35:16.967Z,98056.69
2023-05-16T10:36:20.058Z,98053.16
2023-05-16T10:37:22.039Z,98049.91
2023-05-16T10:38:25.441Z,98055.56
2023-05-16T10:39:27.780Z,98051.75
2023-05-16T10:40:30.805Z,98048.97
2023-05-16T10:41:35.080Z,98046.38
2023-05-16T10:42:40.139Z,98047.13
2023-05-16T10:43:46.273Z,98047.50
2023-05-16T10:45:01.893Z,98050.94
2023-05-16T10:46:09.771Z,98049.88
2023-05-16T10:47:12.169Z,98049.88
2023-05-16T10:48:16.396Z,98058.13
2023-05-16T10:49:23.546Z,98056.56
2023-05-16T10:50:33.268Z,98056.53
2023-05-16T10:51:37.842Z,98060.22
2023-05-16T10:52:39.699Z,98053.09
2023-05-16T10:53:42.489Z,98061.91
2023-05-16T10:54:51.727Z,98058.22
2023-05-16T10:56:08.969Z,98055.09
2023-05-16T10:57:15.213Z,98047.06
2023-05-16T10:58:25.327Z,98053.22
2023-05-16T10:59:28.578Z,98059.69
2023-05-16T11:00:37.576Z,98055.03
2023-05-16T11:01:42.205Z,98052.44
2023-05-16T11:02:45.059Z,98053.91
2023-05-16T11:04:08.309Z,98046.31
2023-05-16T11:05:14.631Z,98047.69
2023-05-16T11:06:23.501Z,98043.94
2023-05-16T11:07:34.270Z,98043.09
2023-05-16T11:08:36.566Z,98044.94
2023-05-16T11:09:45.366Z,98043.09
2023-05-16T11:10:48.457Z,98045.56
2023-05-16T11:12:02.724Z,98046.31
2023-05-16T11:13:09.154Z,98039.09
2023-05-16T11:14:19.016Z,98041.03
2023-05-16T11:15:25.046Z,98046.47
2023-05-16T11:16:27.600Z,98032.50
2023-05-16T11:17:31.555Z,98035.78
2023-05-16T11:18:33.492Z,98030.94
2023-05-16T11:19:42.155Z,98026.88
2023-05-16T11:20:44.978Z,98034.09
2023-05-16T11:22:25.701Z,98036.31
2023-05-16T11:23:28.488Z,98036.03
2023-05-16T11:24:30.974Z,98028.25
2023-05-16T11:25:39.265Z,98043.25
2023-05-16T11:26:41.283Z,98041.09
2023-05-16T11:27:45.403Z,98036.28
2023-05-16T11:28:49.677Z,98052.09
2023-05-16T11:29:52.813Z,98033.03
2023-05-16T11:30:57.563Z,98041.22
2023-05-16T11:31:59.933Z,98029.66
2023-05-16T11:33:03.067Z,98024.63
2023-05-16T11:34:06.714Z,98013.97
2023-05-16T11:35:25.416Z,98020.75
2023-05-16T11:36:30.732Z,98013.28
2023-05-16T11:37:33.652Z,98012.47
2023-05-16T11:38:37.075Z,98014.31
2023-05-16T11:39:40.084Z,98012.13
2023-05-16T11:40:43.398Z,98020.06
2023-05-16T11:41:48.302Z,98020.81
2023-05-16T11:42:51.963Z,98019.09
2023-05-16T11:43:53.846Z,98017.09
2023-05-16T11:45:05.613Z,98020.78
2023-05-16T11:46:08.820Z,98021.56
2023-05-16T11:47:12.399Z,98025.00
2023-05-16T11:48:24.661Z,98035.41
2023-05-16T11:49:36.616Z,98021.72
2023-05-16T11:50:39.842Z,98028.75
2023-05-16T11:51:43.347Z,98023.97
2023-05-16T11:52:46.618Z,98031.47
2023-05-16T11:53:50.841Z,98030.72
2023-05-16T11:54:57.827Z,98032.06
2023-05-16T11:56:02.175Z,98027.81
2023-05-16T11:57:05.609Z,98027.59
2023-05-16T11:58:07.990Z,98028.47
2023-05-16T11:59:12.066Z,98024.75
2023-05-16T12:00:16.754Z,98027.94
2023-05-16T12:01:18.633Z,98025.19
2023-05-16T12:02:22.117Z,98033.13
2023-05-16T12:03:25.164Z,98031.97
2023-05-16T12:04:29.331Z,98025.53
2023-05-16T12:05:34.046Z,98035.13
2023-05-16T12:06:38.685Z,98028.97
2023-05-16T12:07:42.067Z,98038.41
2023-05-16T12:08:50.165Z,98027.63
2023-05-16T12:09:54.556Z,98030.28
2023-05-16T12:10:57.362Z,98027.03
2023-05-16T12:12:00.222Z,98026.41
2023-05-16T12:13:03.496Z,98032.84
2023-05-16T12:14:06.686Z,98024.81
2023-05-16T12:15:18.662Z,98026.59
2023-05-16T12:16:21.584Z,98030.03
2023-05-16T12:17:24.709Z,98031.53
2023-05-16T12:18:27.688Z,98030.28
2023-05-16T12:19:30.652Z,98027.97
2023-05-16T12:20:33.590Z,98029.97
2023-05-16T12:21:38.998Z,98022.34
2023-05-16T12:22:41.004Z,98019.59
2023-05-16T12:23:44.179Z,98026.50
2023-05-16T12:24:47.054Z,98024.34
2023-05-16T12:25:55.524Z,98024.06
2023-05-16T12:26:58.897Z,98021.41
2023-05-16T12:28:03.040Z,98026.28
2023-05-16T12:29:05.789Z,98023.34
2023-05-16T12:30:11.369Z,98021.97